sensor_id;sensor_type;location;lat;lon;timestamp;temperature;humidity
30572;DHT22;17348;50.948;10.696;2023-11-21T00:02:47;8.00;99.90
30572;DHT22;17348;50.948;10.696;2023-11-21T00:05:50;8.00;99.90
30572;DHT22;17348;50.948;10.696;2023-11-21T00:08:53;8.00;99.90
30572;DHT22;17348;50.948;10.696;2023-11-21T00:11:57;7.90;99.90
30572;DHT22;17348;50.948;10.696;2023-11-21T00:15:00;7.90;99.90
30572;DHT22;17348;50.948;10.696;2023-11-21T00:18:03;7.90;99.90
30572;DHT22;17348;50.948;10.696;2023-11-21T00:21:06;7.90;99.90
30572;DHT22;17348;50.948;10.696;2023-11-21T00:24:09;7.90;99.90
30572;DHT22;17348;50.948;10.696;2023-11-21T00:27:16;8.00;99.90
30572;DHT22;17348;50.948;10.696;2023-11-21T00:30:19;7.90;99.90
30572;DHT22;17348;50.948;10.696;2023-11-21T00:33:23;7.90;99.90
30572;DHT22;17348;50.948;10.696;2023-11-21T00:36:26;8.00;99.90
30572;DHT22;17348;50.948;10.696;2023-11-21T00:39:28;8.00;99.90
30572;DHT22;17348;50.948;10.696;2023-11-21T00:42:32;8.00;99.90
30572;DHT22;17348;50.948;10.696;2023-11-21T00:45:35;8.00;99.90
30572;DHT22;17348;50.948;10.696;2023-11-21T00:48:38;8.00;99.90
30572;DHT22;17348;50.948;10.696;2023-11-21T00:51:40;8.00;99.90
30572;DHT22;17348;50.948;10.696;2023-11-21T00:54:43;8.10;99.90
30572;DHT22;17348;50.948;10.696;2023-11-21T00:57:49;8.10;99.90
30572;DHT22;17348;50.948;10.696;2023-11-21T01:00:51;8.10;99.90
30572;DHT22;17348;50.948;10.696;2023-11-21T01:03:53;8.10;99.90
30572;DHT22;17348;50.948;10.696;2023-11-21T01:06:56;8.10;99.90
30572;DHT22;17348;50.948;10.696;2023-11-21T01:09:58;8.20;99.90
30572;DHT22;17348;50.948;10.696;2023-11-21T01:13:03;8.10;99.90
30572;DHT22;17348;50.948;10.696;2023-11-21T01:16:07;8.10;99.90
30572;DHT22;17348;50.948;10.696;2023-11-21T01:19:09;8.10;99.90
30572;DHT22;17348;50.948;10.696;2023-11-21T01:22:12;8.10;99.90
30572;DHT22;17348;50.948;10.696;2023-11-21T01:25:14;8.10;99.90
30572;DHT22;17348;50.948;10.696;2023-11-21T01:28:18;8.10;99.90
30572;DHT22;17348;50.948;10.696;2023-11-21T01:31:21;8.10;99.90
30572;DHT22;17348;50.948;10.696;2023-11-21T01:34:23;8.00;99.90
30572;DHT22;17348;50.948;10.696;2023-11-21T01:37:26;8.00;99.90
30572;DHT22;17348;50.948;10.696;2023-11-21T01:40:28;8.00;99.90
30572;DHT22;17348;50.948;10.696;2023-11-21T01:43:32;8.00;99.90
30572;DHT22;17348;50.948;10.696;2023-11-21T01:46:35;8.00;99.90
30572;DHT22;17348;50.948;10.696;2023-11-21T01:49:38;8.00;99.90
30572;DHT22;17348;50.948;10.696;2023-11-21T01:52:41;8.00;99.90
30572;DHT22;17348;50.948;10.696;2023-11-21T01:55:45;8.00;99.90
30572;DHT22;17348;50.948;10.696;2023-11-21T01:58:49;7.90;99.90
30572;DHT22;17348;50.948;10.696;2023-11-21T02:01:52;7.90;99.90
30572;DHT22;17348;50.948;10.696;2023-11-21T02:04:57;7.90;99.90
30572;DHT22;17348;50.948;10.696;2023-11-21T02:07:59;7.90;99.90
30572;DHT22;17348;50.948;10.696;2023-11-21T02:11:01;7.90;99.90
30572;DHT22;17348;50.948;10.696;2023-11-21T02:14:06;7.90;99.90
30572;DHT22;17348;50.948;10.696;2023-11-21T02:17:10;7.90;99.90
30572;DHT22;17348;50.948;10.696;2023-11-21T02:20:14;7.80;99.90
30572;DHT22;17348;50.948;10.696;2023-11-21T02:23:18;7.80;99.90
30572;DHT22;17348;50.948;10.696;2023-11-21T02:26:20;7.80;99.90
30572;DHT22;17348;50.948;10.696;2023-11-21T02:29:22;7.90;99.90
30572;DHT22;17348;50.948;10.696;2023-11-21T02:32:29;7.90;99.90
30572;DHT22;17348;50.948;10.696;2023-11-21T02:35:32;7.90;99.90
30572;DHT22;17348;50.948;10.696;2023-11-21T02:38:37;7.90;99.90
30572;DHT22;17348;50.948;10.696;2023-11-21T02:41:39;7.90;99.90
30572;DHT22;17348;50.948;10.696;2023-11-21T02:44:42;7.80;99.90
30572;DHT22;17348;50.948;10.696;2023-11-21T02:47:44;7.80;99.90
30572;DHT22;17348;50.948;10.696;2023-11-21T02:50:47;7.80;99.90
30572;DHT22;17348;50.948;10.696;2023-11-21T02:53:50;7.70;99.90
30572;DHT22;17348;50.948;10.696;2023-11-21T02:56:53;7.70;99.90
30572;DHT22;17348;50.948;10.696;2023-11-21T02:59:55;7.70;99.90
30572;DHT22;17348;50.948;10.696;2023-11-21T03:02:58;7.60;99.90
30572;DHT22;17348;50.948;10.696;2023-11-21T03:06:01;7.60;99.90
30572;DHT22;17348;50.948;10.696;2023-11-21T03:09:05;7.50;99.90
30572;DHT22;17348;50.948;10.696;2023-11-21T03:12:09;7.50;99.90
30572;DHT22;17348;50.948;10.696;2023-11-21T03:15:13;7.40;99.90
30572;DHT22;17348;50.948;10.696;2023-11-21T03:18:15;7.40;99.90
30572;DHT22;17348;50.948;10.696;2023-11-21T03:21:18;7.40;99.90
30572;DHT22;17348;50.948;10.696;2023-11-21T03:24:21;7.30;99.90
30572;DHT22;17348;50.948;10.696;2023-11-21T03:27:24;7.30;99.90
30572;DHT22;17348;50.948;10.696;2023-11-21T03:30:27;7.20;99.90
30572;DHT22;17348;50.948;10.696;2023-11-21T03:33:29;7.20;99.90
30572;DHT22;17348;50.948;10.696;2023-11-21T03:36:32;7.10;99.90
30572;DHT22;17348;50.948;10.696;2023-11-21T03:39:36;7.10;99.90
30572;DHT22;17348;50.948;10.696;2023-11-21T03:42:38;7.00;99.90
30572;DHT22;17348;50.948;10.696;2023-11-21T03:45:40;7.00;99.90
30572;DHT22;17348;50.948;10.696;2023-11-21T03:48:43;6.90;99.90
30572;DHT22;17348;50.948;10.696;2023-11-21T03:51:45;6.90;99.90
30572;DHT22;17348;50.948;10.696;2023-11-21T03:54:49;6.80;99.90
30572;DHT22;17348;50.948;10.696;2023-11-21T03:57:51;6.80;99.90
30572;DHT22;17348;50.948;10.696;2023-11-21T04:00:53;6.70;99.90
30572;DHT22;17348;50.948;10.696;2023-11-21T04:03:56;6.60;99.90
30572;DHT22;17348;50.948;10.696;2023-11-21T04:06:58;6.50;99.90
30572;DHT22;17348;50.948;10.696;2023-11-21T04:10:02;6.40;99.90
30572;DHT22;17348;50.948;10.696;2023-11-21T04:13:05;6.30;99.90
30572;DHT22;17348;50.948;10.696;2023-11-21T04:16:08;6.20;99.90
30572;DHT22;17348;50.948;10.696;2023-11-21T04:19:10;6.10;99.90
30572;DHT22;17348;50.948;10.696;2023-11-21T04:22:15;6.00;99.90
30572;DHT22;17348;50.948;10.696;2023-11-21T04:25:19;6.00;99.90
30572;DHT22;17348;50.948;10.696;2023-11-21T04:28:23;5.90;99.90
30572;DHT22;17348;50.948;10.696;2023-11-21T04:31:25;5.90;99.90
30572;DHT22;17348;50.948;10.696;2023-11-21T04:34:27;5.80;99.90
30572;DHT22;17348;50.948;10.696;2023-11-21T04:37:31;5.80;99.90
30572;DHT22;17348;50.948;10.696;2023-11-21T04:40:35;5.70;99.90
30572;DHT22;17348;50.948;10.696;2023-11-21T04:43:37;5.70;99.90
30572;DHT22;17348;50.948;10.696;2023-11-21T04:46:40;5.60;99.90
30572;DHT22;17348;50.948;10.696;2023-11-21T04:49:42;5.50;99.90
30572;DHT22;17348;50.948;10.696;2023-11-21T04:52:45;5.40;99.90
30572;DHT22;17348;50.948;10.696;2023-11-21T04:55:48;5.40;99.90
30572;DHT22;17348;50.948;10.696;2023-11-21T04:58:51;5.40;99.90
30572;DHT22;17348;50.948;10.696;2023-11-21T05:01:53;5.30;99.90
30572;DHT22;17348;50.948;10.696;2023-11-21T05:04:56;5.30;99.90
30572;DHT22;17348;50.948;10.696;2023-11-21T05:07:58;5.30;99.90
30572;DHT22;17348;50.948;10.696;2023-11-21T05:11:02;5.30;99.90
30572;DHT22;17348;50.948;10.696;2023-11-21T05:14:04;5.30;99.90
30572;DHT22;17348;50.948;10.696;2023-11-21T05:17:07;5.30;99.90
30572;DHT22;17348;50.948;10.696;2023-11-21T05:20:10;5.30;99.90
30572;DHT22;17348;50.948;10.696;2023-11-21T05:23:14;5.30;99.90
30572;DHT22;17348;50.948;10.696;2023-11-21T05:26:17;5.30;99.90
30572;DHT22;17348;50.948;10.696;2023-11-21T05:29:20;5.30;99.90
30572;DHT22;17348;50.948;10.696;2023-11-21T05:32:22;5.30;99.90
30572;DHT22;17348;50.948;10.696;2023-11-21T05:35:24;5.30;99.90
30572;DHT22;17348;50.948;10.696;2023-11-21T05:38:27;5.30;99.90
30572;DHT22;17348;50.948;10.696;2023-11-21T05:41:31;5.30;99.90
30572;DHT22;17348;50.948;10.696;2023-11-21T05:44:34;5.30;99.90
30572;DHT22;17348;50.948;10.696;2023-11-21T05:47:37;5.30;99.90
30572;DHT22;17348;50.948;10.696;2023-11-21T05:50:41;5.20;99.90
30572;DHT22;17348;50.948;10.696;2023-11-21T05:53:43;5.20;99.90
30572;DHT22;17348;50.948;10.696;2023-11-21T05:56:47;5.20;99.90
30572;DHT22;17348;50.948;10.696;2023-11-21T05:59:50;5.30;99.90
30572;DHT22;17348;50.948;10.696;2023-11-21T06:02:52;5.30;99.90
30572;DHT22;17348;50.948;10.696;2023-11-21T06:05:55;5.20;99.90
30572;DHT22;17348;50.948;10.696;2023-11-21T06:08:57;5.30;99.90
30572;DHT22;17348;50.948;10.696;2023-11-21T06:12:01;5.30;99.90
30572;DHT22;17348;50.948;10.696;2023-11-21T06:15:05;5.40;99.90
30572;DHT22;17348;50.948;10.696;2023-11-21T06:18:09;5.40;99.90
30572;DHT22;17348;50.948;10.696;2023-11-21T06:21:12;5.40;99.90
30572;DHT22;17348;50.948;10.696;2023-11-21T06:24:14;5.40;99.90
30572;DHT22;17348;50.948;10.696;2023-11-21T06:27:19;5.50;99.90
30572;DHT22;17348;50.948;10.696;2023-11-21T06:30:21;5.50;99.90
30572;DHT22;17348;50.948;10.696;2023-11-21T06:33:24;5.50;99.90
30572;DHT22;17348;50.948;10.696;2023-11-21T06:36:28;5.60;99.90
30572;DHT22;17348;50.948;10.696;2023-11-21T06:39:30;5.60;99.90
30572;DHT22;17348;50.948;10.696;2023-11-21T06:42:34;5.60;99.90
30572;DHT22;17348;50.948;10.696;2023-11-21T06:45:39;5.70;99.90
30572;DHT22;17348;50.948;10.696;2023-11-21T06:48:42;5.70;99.90
30572;DHT22;17348;50.948;10.696;2023-11-21T06:51:44;5.70;99.90
30572;DHT22;17348;50.948;10.696;2023-11-21T06:54:48;5.70;99.90
30572;DHT22;17348;50.948;10.696;2023-11-21T06:57:52;5.70;99.90
30572;DHT22;17348;50.948;10.696;2023-11-21T07:00:54;5.70;99.90
30572;DHT22;17348;50.948;10.696;2023-11-21T07:03:56;5.70;99.90
30572;DHT22;17348;50.948;10.696;2023-11-21T07:06:59;5.70;99.90
30572;DHT22;17348;50.948;10.696;2023-11-21T07:10:01;5.60;99.90
30572;DHT22;17348;50.948;10.696;2023-11-21T07:13:05;5.70;99.90
30572;DHT22;17348;50.948;10.696;2023-11-21T07:16:08;5.60;99.90
30572;DHT22;17348;50.948;10.696;2023-11-21T07:19:11;5.60;99.90
30572;DHT22;17348;50.948;10.696;2023-11-21T07:22:13;5.60;99.90
30572;DHT22;17348;50.948;10.696;2023-11-21T07:25:17;5.60;99.90
30572;DHT22;17348;50.948;10.696;2023-11-21T07:28:20;5.60;99.90
30572;DHT22;17348;50.948;10.696;2023-11-21T07:31:23;5.70;99.90
30572;DHT22;17348;50.948;10.696;2023-11-21T07:34:26;5.80;99.90
30572;DHT22;17348;50.948;10.696;2023-11-21T07:37:28;5.90;99.90
30572;DHT22;17348;50.948;10.696;2023-11-21T07:40:30;6.00;99.90
30572;DHT22;17348;50.948;10.696;2023-11-21T07:43:34;6.10;99.90
30572;DHT22;17348;50.948;10.696;2023-11-21T07:46:37;6.20;99.90
30572;DHT22;17348;50.948;10.696;2023-11-21T07:49:39;6.40;99.90
30572;DHT22;17348;50.948;10.696;2023-11-21T07:52:43;6.50;99.90
30572;DHT22;17348;50.948;10.696;2023-11-21T07:55:46;6.60;99.90
30572;DHT22;17348;50.948;10.696;2023-11-21T07:58:50;6.70;99.90
30572;DHT22;17348;50.948;10.696;2023-11-21T08:01:53;6.80;99.90
30572;DHT22;17348;50.948;10.696;2023-11-21T08:04:55;6.90;99.90
30572;DHT22;17348;50.948;10.696;2023-11-21T08:07:57;6.90;99.90
30572;DHT22;17348;50.948;10.696;2023-11-21T08:11:00;7.00;99.90
30572;DHT22;17348;50.948;10.696;2023-11-21T08:14:04;7.20;99.90
30572;DHT22;17348;50.948;10.696;2023-11-21T08:17:06;7.30;99.90
30572;DHT22;17348;50.948;10.696;2023-11-21T08:20:11;7.30;99.90
30572;DHT22;17348;50.948;10.696;2023-11-21T08:23:17;7.50;99.90
30572;DHT22;17348;50.948;10.696;2023-11-21T08:26:19;7.50;99.90
30572;DHT22;17348;50.948;10.696;2023-11-21T08:29:23;7.60;99.90
30572;DHT22;17348;50.948;10.696;2023-11-21T08:32:25;7.70;99.90
30572;DHT22;17348;50.948;10.696;2023-11-21T08:35:27;7.80;99.90
30572;DHT22;17348;50.948;10.696;2023-11-21T08:38:30;7.80;99.90
30572;DHT22;17348;50.948;10.696;2023-11-21T08:41:32;7.80;99.90
30572;DHT22;17348;50.948;10.696;2023-11-21T08:44:36;7.90;99.90
30572;DHT22;17348;50.948;10.696;2023-11-21T08:47:39;7.90;99.90
30572;DHT22;17348;50.948;10.696;2023-11-21T08:50:42;8.00;99.90
30572;DHT22;17348;50.948;10.696;2023-11-21T08:53:44;8.10;99.90
30572;DHT22;17348;50.948;10.696;2023-11-21T08:56:47;8.20;99.90
30572;DHT22;17348;50.948;10.696;2023-11-21T08:59:52;8.20;99.90
30572;DHT22;17348;50.948;10.696;2023-11-21T09:02:56;8.20;99.90
30572;DHT22;17348;50.948;10.696;2023-11-21T09:05:58;8.30;99.90
30572;DHT22;17348;50.948;10.696;2023-11-21T09:09:01;8.30;99.90
30572;DHT22;17348;50.948;10.696;2023-11-21T09:12:06;8.30;99.90
30572;DHT22;17348;50.948;10.696;2023-11-21T09:15:10;8.30;99.90
30572;DHT22;17348;50.948;10.696;2023-11-21T09:18:13;8.30;99.90
30572;DHT22;17348;50.948;10.696;2023-11-21T09:21:16;8.30;99.90
30572;DHT22;17348;50.948;10.696;2023-11-21T09:24:18;8.30;99.90
30572;DHT22;17348;50.948;10.696;2023-11-21T09:27:21;8.30;99.90
30572;DHT22;17348;50.948;10.696;2023-11-21T09:30:25;8.40;99.90
30572;DHT22;17348;50.948;10.696;2023-11-21T09:33:27;8.60;99.90
30572;DHT22;17348;50.948;10.696;2023-11-21T09:36:31;8.70;99.90
30572;DHT22;17348;50.948;10.696;2023-11-21T09:39:34;8.80;99.90
30572;DHT22;17348;50.948;10.696;2023-11-21T09:42:39;8.90;99.90
30572;DHT22;17348;50.948;10.696;2023-11-21T09:45:45;9.00;99.90
30572;DHT22;17348;50.948;10.696;2023-11-21T09:48:51;9.10;99.90
30572;DHT22;17348;50.948;10.696;2023-11-21T09:51:55;9.20;99.90
30572;DHT22;17348;50.948;10.696;2023-11-21T09:54:58;9.30;99.90
30572;DHT22;17348;50.948;10.696;2023-11-21T09:58:02;9.30;99.90
30572;DHT22;17348;50.948;10.696;2023-11-21T10:01:07;9.40;99.90
30572;DHT22;17348;50.948;10.696;2023-11-21T10:04:09;9.50;99.90
30572;DHT22;17348;50.948;10.696;2023-11-21T10:07:14;9.50;99.90
30572;DHT22;17348;50.948;10.696;2023-11-21T10:10:20;9.50;99.90
30572;DHT22;17348;50.948;10.696;2023-11-21T10:13:24;9.40;99.90
30572;DHT22;17348;50.948;10.696;2023-11-21T10:16:32;9.30;99.90
30572;DHT22;17348;50.948;10.696;2023-11-21T10:19:36;9.20;99.90
30572;DHT22;17348;50.948;10.696;2023-11-21T10:22:40;9.20;99.90
30572;DHT22;17348;50.948;10.696;2023-11-21T10:25:43;9.10;99.90
30572;DHT22;17348;50.948;10.696;2023-11-21T10:28:55;9.10;99.90
30572;DHT22;17348;50.948;10.696;2023-11-21T10:31:59;9.10;99.90
30572;DHT22;17348;50.948;10.696;2023-11-21T10:35:02;9.10;99.90
30572;DHT22;17348;50.948;10.696;2023-11-21T10:38:07;9.00;99.90
30572;DHT22;17348;50.948;10.696;2023-11-21T10:41:11;9.10;99.90
30572;DHT22;17348;50.948;10.696;2023-11-21T10:44:17;9.10;99.90
30572;DHT22;17348;50.948;10.696;2023-11-21T10:47:23;9.20;99.90
30572;DHT22;17348;50.948;10.696;2023-11-21T10:50:26;9.20;99.90
30572;DHT22;17348;50.948;10.696;2023-11-21T10:53:28;9.30;99.90
30572;DHT22;17348;50.948;10.696;2023-11-21T10:56:32;9.30;99.90
30572;DHT22;17348;50.948;10.696;2023-11-21T10:59:36;9.40;99.90
30572;DHT22;17348;50.948;10.696;2023-11-21T11:02:41;9.40;99.90
30572;DHT22;17348;50.948;10.696;2023-11-21T11:05:44;9.50;99.90
30572;DHT22;17348;50.948;10.696;2023-11-21T11:08:52;9.50;99.90
30572;DHT22;17348;50.948;10.696;2023-11-21T11:11:55;9.40;99.90
30572;DHT22;17348;50.948;10.696;2023-11-21T11:14:58;9.40;99.90
30572;DHT22;17348;50.948;10.696;2023-11-21T11:18:02;9.30;99.90
30572;DHT22;17348;50.948;10.696;2023-11-21T11:21:14;9.30;99.90
30572;DHT22;17348;50.948;10.696;2023-11-21T11:24:54;9.30;99.90
30572;DHT22;17348;50.948;10.696;2023-11-21T11:28:04;9.30;99.90
30572;DHT22;17348;50.948;10.696;2023-11-21T11:31:14;9.30;99.90
30572;DHT22;17348;50.948;10.696;2023-11-21T11:34:23;9.20;99.90
30572;DHT22;17348;50.948;10.696;2023-11-21T11:37:29;9.20;99.90
30572;DHT22;17348;50.948;10.696;2023-11-21T11:40:52;9.10;99.90
30572;DHT22;17348;50.948;10.696;2023-11-21T11:43:55;9.00;99.90
30572;DHT22;17348;50.948;10.696;2023-11-21T11:46:57;9.00;99.90
30572;DHT22;17348;50.948;10.696;2023-11-21T11:50:03;8.90;99.90
30572;DHT22;17348;50.948;10.696;2023-11-21T11:53:15;9.00;99.90
30572;DHT22;17348;50.948;10.696;2023-11-21T11:56:26;9.00;99.90
30572;DHT22;17348;50.948;10.696;2023-11-21T11:59:29;9.00;99.90
30572;DHT22;17348;50.948;10.696;2023-11-21T12:02:31;9.00;99.90
30572;DHT22;17348;50.948;10.696;2023-11-21T12:05:36;9.10;99.90
30572;DHT22;17348;50.948;10.696;2023-11-21T12:08:41;9.10;99.90
30572;DHT22;17348;50.948;10.696;2023-11-21T12:11:46;9.00;99.90
30572;DHT22;17348;50.948;10.696;2023-11-21T12:14:48;9.10;99.90
30572;DHT22;17348;50.948;10.696;2023-11-21T12:17:51;9.10;99.90
30572;DHT22;17348;50.948;10.696;2023-11-21T12:20:55;9.10;99.90
30572;DHT22;17348;50.948;10.696;2023-11-21T12:23:57;9.00;99.90
30572;DHT22;17348;50.948;10.696;2023-11-21T12:27:00;9.10;99.90
30572;DHT22;17348;50.948;10.696;2023-11-21T12:30:02;9.00;99.90
30572;DHT22;17348;50.948;10.696;2023-11-21T12:33:05;9.00;99.90
30572;DHT22;17348;50.948;10.696;2023-11-21T12:36:11;8.90;99.90
30572;DHT22;17348;50.948;10.696;2023-11-21T12:39:13;8.80;99.90
30572;DHT22;17348;50.948;10.696;2023-11-21T12:42:16;8.80;99.90
30572;DHT22;17348;50.948;10.696;2023-11-21T12:45:21;8.80;99.90
30572;DHT22;17348;50.948;10.696;2023-11-21T12:48:23;8.70;99.90
30572;DHT22;17348;50.948;10.696;2023-11-21T12:51:27;8.70;99.90
30572;DHT22;17348;50.948;10.696;2023-11-21T12:54:31;8.80;99.90
30572;DHT22;17348;50.948;10.696;2023-11-21T12:57:34;8.80;99.90
30572;DHT22;17348;50.948;10.696;2023-11-21T13:00:40;8.70;99.90
30572;DHT22;17348;50.948;10.696;2023-11-21T13:03:43;8.70;99.90
30572;DHT22;17348;50.948;10.696;2023-11-21T13:06:48;8.70;99.90
30572;DHT22;17348;50.948;10.696;2023-11-21T13:09:52;8.70;99.90
30572;DHT22;17348;50.948;10.696;2023-11-21T13:12:55;8.70;99.90
30572;DHT22;17348;50.948;10.696;2023-11-21T13:16:00;8.70;99.90
30572;DHT22;17348;50.948;10.696;2023-11-21T13:19:05;8.60;99.90
30572;DHT22;17348;50.948;10.696;2023-11-21T13:22:11;8.60;99.90
30572;DHT22;17348;50.948;10.696;2023-11-21T13:25:13;8.60;99.90
30572;DHT22;17348;50.948;10.696;2023-11-21T13:28:16;8.60;99.90
30572;DHT22;17348;50.948;10.696;2023-11-21T13:31:19;8.60;99.90
30572;DHT22;17348;50.948;10.696;2023-11-21T13:34:27;8.50;99.90
30572;DHT22;17348;50.948;10.696;2023-11-21T13:37:31;8.50;99.90
30572;DHT22;17348;50.948;10.696;2023-11-21T13:40:34;8.40;99.90
30572;DHT22;17348;50.948;10.696;2023-11-21T13:43:43;8.40;99.90
30572;DHT22;17348;50.948;10.696;2023-11-21T13:46:51;8.30;99.90
30572;DHT22;17348;50.948;10.696;2023-11-21T13:49:54;8.20;99.90
30572;DHT22;17348;50.948;10.696;2023-11-21T13:52:57;8.00;99.90
30572;DHT22;17348;50.948;10.696;2023-11-21T13:56:04;7.90;99.90
30572;DHT22;17348;50.948;10.696;2023-11-21T13:59:07;7.80;99.90
30572;DHT22;17348;50.948;10.696;2023-11-21T14:02:19;7.70;99.90
30572;DHT22;17348;50.948;10.696;2023-11-21T14:05:29;7.60;99.90
30572;DHT22;17348;50.948;10.696;2023-11-21T14:08:34;7.60;99.90
30572;DHT22;17348;50.948;10.696;2023-11-21T14:11:37;7.60;99.90
30572;DHT22;17348;50.948;10.696;2023-11-21T14:14:39;7.40;99.90
30572;DHT22;17348;50.948;10.696;2023-11-21T14:17:41;7.30;99.90
30572;DHT22;17348;50.948;10.696;2023-11-21T14:20:44;7.30;99.90
30572;DHT22;17348;50.948;10.696;2023-11-21T14:23:48;7.20;99.90
30572;DHT22;17348;50.948;10.696;2023-11-21T14:26:51;7.10;99.90
30572;DHT22;17348;50.948;10.696;2023-11-21T14:29:53;7.00;99.90
30572;DHT22;17348;50.948;10.696;2023-11-21T14:32:58;7.00;99.90
30572;DHT22;17348;50.948;10.696;2023-11-21T14:36:01;6.90;99.90
30572;DHT22;17348;50.948;10.696;2023-11-21T14:39:05;6.80;99.90
30572;DHT22;17348;50.948;10.696;2023-11-21T14:42:10;6.70;99.90
30572;DHT22;17348;50.948;10.696;2023-11-21T14:45:12;6.70;99.90
30572;DHT22;17348;50.948;10.696;2023-11-21T14:48:20;6.60;99.90
30572;DHT22;17348;50.948;10.696;2023-11-21T14:51:37;6.50;99.90
30572;DHT22;17348;50.948;10.696;2023-11-21T14:55:03;6.50;99.90
30572;DHT22;17348;50.948;10.696;2023-11-21T14:58:32;6.40;99.90
30572;DHT22;17348;50.948;10.696;2023-11-21T15:01:34;6.40;99.90
30572;DHT22;17348;50.948;10.696;2023-11-21T15:04:45;6.30;99.90
30572;DHT22;17348;50.948;10.696;2023-11-21T15:07:47;6.30;99.90
30572;DHT22;17348;50.948;10.696;2023-11-21T15:10:52;6.20;99.90
30572;DHT22;17348;50.948;10.696;2023-11-21T15:13:56;6.20;99.90
30572;DHT22;17348;50.948;10.696;2023-11-21T15:16:58;6.10;99.90
30572;DHT22;17348;50.948;10.696;2023-11-21T15:20:04;6.10;99.90
30572;DHT22;17348;50.948;10.696;2023-11-21T15:23:09;6.10;99.90
30572;DHT22;17348;50.948;10.696;2023-11-21T15:26:15;6.00;99.90
30572;DHT22;17348;50.948;10.696;2023-11-21T15:29:17;6.00;99.90
30572;DHT22;17348;50.948;10.696;2023-11-21T15:32:22;6.00;99.90
30572;DHT22;17348;50.948;10.696;2023-11-21T15:35:24;6.00;99.90
30572;DHT22;17348;50.948;10.696;2023-11-21T15:38:28;5.90;99.90
30572;DHT22;17348;50.948;10.696;2023-11-21T15:41:32;5.90;99.90
30572;DHT22;17348;50.948;10.696;2023-11-21T15:44:35;5.90;99.90
30572;DHT22;17348;50.948;10.696;2023-11-21T15:47:38;5.90;99.90
30572;DHT22;17348;50.948;10.696;2023-11-21T15:50:41;5.90;99.90
30572;DHT22;17348;50.948;10.696;2023-11-21T15:53:44;5.80;99.90
30572;DHT22;17348;50.948;10.696;2023-11-21T15:56:48;5.80;99.90
30572;DHT22;17348;50.948;10.696;2023-11-21T15:59:51;5.80;99.90
30572;DHT22;17348;50.948;10.696;2023-11-21T16:02:54;5.80;99.90
30572;DHT22;17348;50.948;10.696;2023-11-21T16:05:56;5.80;99.90
30572;DHT22;17348;50.948;10.696;2023-11-21T16:08:59;5.80;99.90
30572;DHT22;17348;50.948;10.696;2023-11-21T16:12:05;5.70;99.90
30572;DHT22;17348;50.948;10.696;2023-11-21T16:15:08;5.70;99.90
30572;DHT22;17348;50.948;10.696;2023-11-21T16:18:11;5.70;99.90
30572;DHT22;17348;50.948;10.696;2023-11-21T16:21:14;5.60;99.90
30572;DHT22;17348;50.948;10.696;2023-11-21T16:24:17;5.60;99.90
30572;DHT22;17348;50.948;10.696;2023-11-21T16:27:21;5.60;99.90
30572;DHT22;17348;50.948;10.696;2023-11-21T16:30:23;5.60;99.90
30572;DHT22;17348;50.948;10.696;2023-11-21T16:33:27;5.60;99.90
30572;DHT22;17348;50.948;10.696;2023-11-21T16:36:30;5.60;99.90
30572;DHT22;17348;50.948;10.696;2023-11-21T16:39:32;5.60;99.90
30572;DHT22;17348;50.948;10.696;2023-11-21T16:42:36;5.60;99.90
30572;DHT22;17348;50.948;10.696;2023-11-21T16:45:39;5.60;99.90
30572;DHT22;17348;50.948;10.696;2023-11-21T16:48:41;5.60;99.90
30572;DHT22;17348;50.948;10.696;2023-11-21T16:51:44;5.50;99.90
30572;DHT22;17348;50.948;10.696;2023-11-21T16:54:46;5.50;99.90
30572;DHT22;17348;50.948;10.696;2023-11-21T16:57:51;5.50;99.90
30572;DHT22;17348;50.948;10.696;2023-11-21T17:00:53;5.40;99.90
30572;DHT22;17348;50.948;10.696;2023-11-21T17:03:56;5.40;99.90
30572;DHT22;17348;50.948;10.696;2023-11-21T17:07:00;5.40;99.90
30572;DHT22;17348;50.948;10.696;2023-11-21T17:10:02;5.30;99.90
30572;DHT22;17348;50.948;10.696;2023-11-21T17:13:10;5.30;99.90
30572;DHT22;17348;50.948;10.696;2023-11-21T17:16:12;5.30;99.90
30572;DHT22;17348;50.948;10.696;2023-11-21T17:19:14;5.20;99.90
30572;DHT22;17348;50.948;10.696;2023-11-21T17:22:16;5.10;99.90
30572;DHT22;17348;50.948;10.696;2023-11-21T17:25:20;5.00;99.90
30572;DHT22;17348;50.948;10.696;2023-11-21T17:28:24;4.90;99.90
30572;DHT22;17348;50.948;10.696;2023-11-21T17:31:27;4.90;99.90
30572;DHT22;17348;50.948;10.696;2023-11-21T17:34:30;4.80;99.90
30572;DHT22;17348;50.948;10.696;2023-11-21T17:37:32;4.80;99.90
30572;DHT22;17348;50.948;10.696;2023-11-21T17:40:35;4.70;99.90
30572;DHT22;17348;50.948;10.696;2023-11-21T17:43:38;4.70;99.90
30572;DHT22;17348;50.948;10.696;2023-11-21T17:46:42;4.60;99.90
30572;DHT22;17348;50.948;10.696;2023-11-21T17:49:45;4.60;99.90
30572;DHT22;17348;50.948;10.696;2023-11-21T17:52:48;4.60;99.90
30572;DHT22;17348;50.948;10.696;2023-11-21T17:55:51;4.60;99.90
30572;DHT22;17348;50.948;10.696;2023-11-21T17:58:55;4.60;99.90
30572;DHT22;17348;50.948;10.696;2023-11-21T18:01:59;4.50;99.90
30572;DHT22;17348;50.948;10.696;2023-11-21T18:05:02;4.60;99.90
30572;DHT22;17348;50.948;10.696;2023-11-21T18:08:06;4.50;99.90
30572;DHT22;17348;50.948;10.696;2023-11-21T18:11:08;4.50;99.90
30572;DHT22;17348;50.948;10.696;2023-11-21T18:14:12;4.50;99.90
30572;DHT22;17348;50.948;10.696;2023-11-21T18:17:14;4.40;99.90
30572;DHT22;17348;50.948;10.696;2023-11-21T18:20:17;4.50;99.90
30572;DHT22;17348;50.948;10.696;2023-11-21T18:23:20;4.50;99.90
30572;DHT22;17348;50.948;10.696;2023-11-21T18:26:22;4.40;99.90
30572;DHT22;17348;50.948;10.696;2023-11-21T18:29:26;4.50;99.90
30572;DHT22;17348;50.948;10.696;2023-11-21T18:32:29;4.50;99.90
30572;DHT22;17348;50.948;10.696;2023-11-21T18:35:31;4.50;99.90
30572;DHT22;17348;50.948;10.696;2023-11-21T18:38:33;4.50;99.90
30572;DHT22;17348;50.948;10.696;2023-11-21T18:41:36;4.60;99.90
30572;DHT22;17348;50.948;10.696;2023-11-21T18:44:42;4.50;99.90
30572;DHT22;17348;50.948;10.696;2023-11-21T18:47:44;4.50;99.90
30572;DHT22;17348;50.948;10.696;2023-11-21T18:50:47;4.60;99.90
30572;DHT22;17348;50.948;10.696;2023-11-21T18:53:52;4.60;99.90
30572;DHT22;17348;50.948;10.696;2023-11-21T18:56:55;4.60;99.90
30572;DHT22;17348;50.948;10.696;2023-11-21T19:00:00;4.60;99.90
30572;DHT22;17348;50.948;10.696;2023-11-21T19:03:04;4.60;99.90
30572;DHT22;17348;50.948;10.696;2023-11-21T19:06:08;4.60;99.90
30572;DHT22;17348;50.948;10.696;2023-11-21T19:09:10;4.60;99.90
30572;DHT22;17348;50.948;10.696;2023-11-21T19:12:13;4.70;99.90
30572;DHT22;17348;50.948;10.696;2023-11-21T19:15:17;4.70;99.90
30572;DHT22;17348;50.948;10.696;2023-11-21T19:18:19;4.70;99.90
30572;DHT22;17348;50.948;10.696;2023-11-21T19:21:22;4.60;99.90